Time;durP1;ratioP1;P1;durP2;ratioP2;P2;SDS_P1;SDS_P2;PMS_P1;PMS_P2;Temp;Humidity;BMP_temperature;BMP_pressure;BME280_temperature;BME280_humidity;BME280_pressure;Samples;Min_cycle;Max_cycle;Signal;HPM_P1;HPM_P2
2023/05/22 00:01:41;;;;;;;164.75;63.30;;;;;;;18.59;44.73;101537.09;5067903;28;20023;-70
2023/05/22 00:04:07;;;;;;;171.35;64.85;;;;;;;18.58;45.10;101532.72;5048580;28;20013;-70
2023/05/22 00:06:32;;;;;;;161.98;62.90;;;;;;;18.58;45.09;101527.44;5046470;28;20379;-70
2023/05/22 00:08:58;;;;;;;161.98;63.58;;;;;;;18.58;44.56;101535.38;5049498;28;20027;-70
2023/05/22 00:11:24;;;;;;;167.27;65.35;;;;;;;18.58;44.80;101530.06;5049793;28;20496;-70
2023/05/22 00:13:50;;;;;;;169.85;64.90;;;;;;;18.59;44.74;101531.81;5049902;28;20086;-70
2023/05/22 00:16:15;;;;;;;163.80;63.47;;;;;;;18.58;45.04;101532.72;5057590;28;20021;-70
2023/05/22 00:18:41;;;;;;;167.60;64.43;;;;;;;18.58;44.66;101530.06;5057237;28;20024;-70
2023/05/22 00:21:06;;;;;;;162.95;63.03;;;;;;;18.57;45.32;101529.22;5069669;28;20111;-70
2023/05/22 00:23:33;;;;;;;169.82;65.88;;;;;;;18.57;45.39;101525.72;5053196;28;20095;-70
2023/05/22 00:25:58;;;;;;;166.27;64.20;;;;;;;18.57;45.10;101525.72;5048404;28;20482;-70
2023/05/22 00:28:24;;;;;;;164.93;64.13;;;;;;;18.56;45.33;101522.19;5056900;28;20028;-70
2023/05/22 00:30:49;;;;;;;165.52;64.57;;;;;;;18.57;45.16;101523.09;5068995;28;20028;-70
2023/05/22 00:33:15;;;;;;;163.32;62.65;;;;;;;18.57;44.73;101523.09;5056648;28;20031;-71
2023/05/22 00:35:40;;;;;;;162.25;63.72;;;;;;;18.57;44.73;101523.09;5046895;28;20028;-71
2023/05/22 00:38:07;;;;;;;164.38;63.05;;;;;;;18.55;44.91;101520.47;5053243;28;20130;-68
2023/05/22 00:40:32;;;;;;;160.85;62.72;;;;;;;18.56;44.82;101524.00;5059026;28;20021;-68
2023/05/22 00:42:58;;;;;;;161.10;63.83;;;;;;;18.55;45.41;101525.75;5062265;28;20054;-68
2023/05/22 00:45:23;;;;;;;165.63;64.70;;;;;;;18.56;45.38;101526.63;5055158;28;20043;-68
2023/05/22 00:47:49;;;;;;;166.05;64.45;;;;;;;18.55;45.36;101519.63;5072175;28;20492;-68
2023/05/22 00:50:15;;;;;;;167.15;64.07;;;;;;;18.54;44.84;101521.41;5069492;28;20033;-68
2023/05/22 00:52:42;;;;;;;161.27;62.88;;;;;;;18.55;45.67;101530.19;5052283;28;20021;-71
2023/05/22 00:55:08;;;;;;;162.82;63.97;;;;;;;18.55;45.41;101516.97;5049032;28;20059;-70
2023/05/22 00:57:34;;;;;;;172.20;63.95;;;;;;;18.54;45.41;101524.06;5035747;28;20052;-71
2023/05/22 01:00:00;;;;;;;168.77;63.40;;;;;;;18.53;45.94;101522.31;5046610;28;20493;-71
2023/05/22 01:02:27;;;;;;;158.10;63.30;;;;;;;18.52;45.42;101519.72;5050296;28;20021;-71
2023/05/22 01:04:55;;;;;;;177.70;66.78;;;;;;;18.53;45.23;101518.81;5049819;28;20048;-67
2023/05/22 01:07:20;;;;;;;166.95;63.20;;;;;;;18.51;45.63;101520.66;5060826;28;20025;-69
2023/05/22 01:09:46;;;;;;;165.80;64.60;;;;;;;18.50;45.78;101516.25;5052652;28;20036;-69
2023/05/22 01:12:33;;;;;;;182.68;66.75;;;;;;;18.50;45.30;101509.22;5071939;28;20072;-68
2023/05/22 01:15:05;;;;;;;164.95;64.07;;;;;;;18.49;45.97;101498.69;5050275;28;20037;-67
2023/05/22 01:17:45;;;;;;;163.13;63.03;;;;;;;18.49;45.84;101509.28;5065280;28;20501;-68
2023/05/22 01:20:58;;;;;;;166.18;64.50;;;;;;;18.47;45.05;101508.44;5052361;28;20040;-68
2023/05/22 01:23:56;;;;;;;168.10;64.53;;;;;;;18.47;46.61;101503.16;5032929;28;20653;-68
2023/05/22 01:26:35;;;;;;;159.32;62.90;;;;;;;18.46;45.92;101499.66;5067440;22;20041;-71
2023/05/22 01:29:14;;;;;;;164.57;64.68;;;;;;;18.46;45.82;101498.78;5068105;28;20033;-72
2023/05/22 01:31:40;;;;;;;166.90;65.38;;;;;;;18.44;46.74;101509.41;5051911;28;20040;-71
2023/05/22 01:34:10;;;;;;;178.77;65.82;;;;;;;18.44;46.57;101500.63;5052579;28;20024;-72
2023/05/22 01:36:36;;;;;;;164.43;64.93;;;;;;;18.44;46.57;101505.94;5047596;28;20112;-72
2023/05/22 01:39:05;;;;;;;163.88;65.85;;;;;;;18.44;46.28;101513.84;5051855;28;20033;-71
2023/05/22 01:41:31;;;;;;;170.52;65.60;;;;;;;18.41;47.28;101497.16;5051822;28;20535;-72
2023/05/22 01:43:56;;;;;;;169.27;67.90;;;;;;;18.41;46.77;101505.09;5052278;28;20020;-72
2023/05/22 01:46:25;;;;;;;169.07;65.93;;;;;;;18.42;46.22;101506.84;5050693;28;20170;-71
2023/05/22 01:48:50;;;;;;;168.52;65.40;;;;;;;18.40;46.80;101502.53;5051284;28;20036;-71
2023/05/22 01:51:25;;;;;;;164.18;64.45;;;;;;;18.41;47.07;101510.38;5052233;28;20017;-71
2023/05/22 01:54:04;;;;;;;166.52;64.63;;;;;;;18.41;46.59;101504.25;5046969;28;20159;-70
2023/05/22 01:56:40;;;;;;;164.85;65.03;;;;;;;18.41;46.29;101497.16;5039820;28;20049;-71
2023/05/22 01:59:11;;;;;;;167.45;65.82;;;;;;;18.41;46.36;101502.47;5051462;28;20064;-72
2023/05/22 02:01:40;;;;;;;167.95;66.05;;;;;;;18.40;46.98;101499.88;5044353;28;20032;-71
2023/05/22 02:04:06;;;;;;;168.70;64.57;;;;;;;18.38;46.23;101499.94;5047966;28;20032;-71
2023/05/22 02:06:32;;;;;;;164.90;64.85;;;;;;;18.40;46.07;101503.38;5051559;28;20012;-71
2023/05/22 02:08:58;;;;;;;163.70;63.35;;;;;;;18.40;47.11;101502.53;5051506;28;20025;-72
2023/05/22 02:11:26;;;;;;;179.55;66.13;;;;;;;18.39;46.91;101488.44;5034505;28;20032;-71
2023/05/22 02:13:51;;;;;;;168.30;65.63;;;;;;;18.40;46.52;101498.06;5050113;28;20557;-71
2023/05/22 02:16:20;;;;;;;163.15;64.93;;;;;;;18.39;46.69;101491.09;5051391;28;20039;-71
2023/05/22 02:18:46;;;;;;;162.88;65.30;;;;;;;18.39;47.05;101488.44;5029185;28;20094;-71
2023/05/22 02:21:11;;;;;;;165.27;66.25;;;;;;;18.38;47.29;101481.41;5050808;28;20422;-70
2023/05/22 02:23:36;;;;;;;167.50;65.60;;;;;;;18.38;46.41;101477.91;5048463;28;20060;-71
2023/05/22 02:26:05;;;;;;;164.63;68.13;;;;;;;18.37;46.72;101479.69;5049122;28;20028;-70
2023/05/22 02:28:30;;;;;;;165.38;65.60;;;;;;;18.35;46.62;101476.25;5033880;28;20025;-71
2023/05/22 02:30:56;;;;;;;167.02;65.78;;;;;;;18.37;47.05;101468.25;5052224;28;20048;-71
2023/05/22 02:33:21;;;;;;;166.38;65.85;;;;;;;18.36;47.07;101475.31;5046577;28;20517;-71
2023/05/22 02:35:46;;;;;;;164.15;65.43;;;;;;;18.37;47.52;101471.75;5041548;28;20395;-71
2023/05/22 02:38:12;;;;;;;166.98;66.30;;;;;;;18.38;47.72;101475.28;5043090;28;20111;-73
2023/05/22 02:40:38;;;;;;;168.05;65.18;;;;;;;18.37;47.20;101468.25;5034406;28;20055;-70
2023/05/22 02:43:04;;;;;;;180.02;66.88;;;;;;;18.38;46.92;101465.56;5049027;28;20114;-71
2023/05/22 02:45:30;;;;;;;155.43;63.67;;;;;;;18.37;47.63;101468.25;5050385;28;20049;-71
2023/05/22 02:47:55;;;;;;;164.27;65.88;;;;;;;18.38;47.71;101464.69;5034858;28;20060;-70
2023/05/22 02:50:21;;;;;;;161.77;65.95;;;;;;;18.37;47.02;101469.09;5041896;28;20056;-70
2023/05/22 02:52:46;;;;;;;168.77;66.88;;;;;;;18.37;47.91;101471.75;5040927;28;20118;-71
2023/05/22 02:55:12;;;;;;;166.95;65.72;;;;;;;18.36;47.83;101462.09;5041278;28;20112;-71
2023/05/22 02:57:37;;;;;;;177.13;65.93;;;;;;;18.36;47.57;101462.09;5037927;28;20474;-71
2023/05/22 03:00:05;;;;;;;156.57;63.63;;;;;;;18.36;47.42;101464.72;5047251;28;20104;-71
2023/05/22 03:02:31;;;;;;;164.52;65.25;;;;;;;18.36;47.87;101462.09;5049516;28;20398;-71
2023/05/22 03:04:57;;;;;;;165.65;64.95;;;;;;;18.36;47.39;101459.44;5046355;28;20040;-71
2023/05/22 03:07:28;;;;;;;169.98;65.30;;;;;;;18.35;47.62;101449.81;5034405;28;20021;-71
2023/05/22 03:09:53;;;;;;;170.32;65.40;;;;;;;18.35;47.42;101449.81;5048947;28;20616;-72
2023/05/22 03:12:19;;;;;;;166.98;66.00;;;;;;;18.35;46.97;101440.97;5044763;28;20100;-71
2023/05/22 03:14:45;;;;;;;162.57;64.60;;;;;;;18.35;47.30;101452.44;5047712;28;20027;-71
2023/05/22 03:17:11;;;;;;;166.95;65.95;;;;;;;18.35;47.15;101444.50;5050460;28;20036;-71
2023/05/22 03:19:36;;;;;;;171.88;67.30;;;;;;;18.34;47.47;101450.72;5051112;28;20025;-71
2023/05/22 03:22:01;;;;;;;167.18;65.30;;;;;;;18.35;47.42;101446.28;5046046;28;20038;-71
2023/05/22 03:24:27;;;;;;;165.25;65.35;;;;;;;18.35;47.09;101444.50;5045333;28;20021;-71
2023/05/22 03:26:52;;;;;;;168.00;65.43;;;;;;;18.35;47.58;101444.50;5043241;28;20410;-71
2023/05/22 03:29:17;;;;;;;164.88;64.97;;;;;;;18.35;47.70;101441.88;5039210;28;20478;-71
2023/05/22 03:31:43;;;;;;;191.15;68.82;;;;;;;18.35;47.04;101433.94;5048034;28;20489;-71
2023/05/22 03:34:15;;;;;;;181.80;66.57;;;;;;;18.36;47.53;101440.94;5042172;28;20033;-74
2023/05/22 03:36:41;;;;;;;157.57;64.10;;;;;;;18.36;47.19;101438.28;5035804;28;20521;-72
2023/05/22 03:39:06;;;;;;;172.77;73.43;;;;;;;18.38;46.55;101443.53;5038238;28;20036;-71
2023/05/22 03:41:32;;;;;;;171.75;69.68;;;;;;;18.40;47.03;101433.75;5050974;28;20502;-71
2023/05/22 03:43:57;;;;;;;189.90;77.63;;;;;;;18.42;46.96;101434.56;5030282;28;20051;-71
2023/05/22 03:46:23;;;;;;;169.60;72.00;;;;;;;18.42;47.41;101429.28;5046595;28;20021;-71
2023/05/22 03:48:48;;;;;;;181.00;72.85;;;;;;;18.43;47.11;101428.34;5048889;28;20037;-72
2023/05/22 03:51:13;;;;;;;167.80;76.00;;;;;;;18.44;46.74;101431.88;5037211;28;20703;-72
2023/05/22 03:53:39;;;;;;;169.40;69.60;;;;;;;18.46;46.67;101430.00;5041579;28;20025;-72
2023/05/22 03:56:04;;;;;;;169.60;70.30;;;;;;;18.47;46.72;101437.03;5048703;28;20029;-72
2023/05/22 03:58:30;;;;;;;179.20;77.25;;;;;;;18.48;46.67;101433.47;5043992;28;20372;-72
2023/05/22 04:00:59;;;;;;;166.95;70.45;;;;;;;18.48;46.95;101439.63;5047318;28;20089;-72
2023/05/22 04:03:28;;;;;;;164.20;64.65;;;;;;;18.49;46.94;101444.00;5033450;28;20378;-72
2023/05/22 04:05:53;;;;;;;166.38;64.35;;;;;;;18.50;46.45;101432.50;5032045;28;20021;-72
2023/05/22 04:08:19;;;;;;;178.85;82.70;;;;;;;18.51;46.75;101441.28;5049578;28;20107;-72
2023/05/22 04:10:47;;;;;;;175.43;77.22;;;;;;;18.53;46.65;101448.25;5053361;28;20292;-72
2023/05/22 04:13:13;;;;;;;167.10;71.93;;;;;;;18.55;46.20;101442.91;5045752;28;20051;-72
2023/05/22 04:15:40;;;;;;;171.02;71.18;;;;;;;18.56;46.55;101445.47;5054592;28;20020;-71
2023/05/22 04:18:06;;;;;;;185.50;75.05;;;;;;;18.59;46.24;101436.56;5053804;28;20032;-72
2023/05/22 04:20:32;;;;;;;184.55;72.93;;;;;;;18.61;46.21;101433.84;5047998;28;20055;-71
2023/05/22 04:22:57;;;;;;;169.15;71.13;;;;;;;18.62;46.08;101430.28;5034185;28;20033;-72
2023/05/22 04:25:22;;;;;;;187.80;77.57;;;;;;;18.65;45.33;101424.88;5049185;28;20108;-71
2023/05/22 04:27:49;;;;;;;164.90;65.78;;;;;;;18.67;46.27;101429.19;5048881;28;20025;-74
2023/05/22 04:30:15;;;;;;;159.57;67.75;;;;;;;18.69;44.93;101432.66;5031097;28;20522;-71
2023/05/22 04:32:42;;;;;;;192.30;71.30;;;;;;;18.73;45.16;101434.25;5030030;28;20703;-71
2023/05/22 04:35:08;;;;;;;174.52;71.20;;;;;;;18.77;44.80;101435.00;5025951;28;20550;-71
2023/05/22 04:37:34;;;;;;;170.93;69.40;;;;;;;18.80;44.29;101426.06;5049473;28;21301;-70
2023/05/22 04:40:05;;;;;;;181.07;72.85;;;;;;;18.82;44.32;101426.88;5046084;28;20074;-71
2023/05/22 04:42:33;;;;;;;172.77;68.63;;;;;;;18.85;44.41;101424.13;5051686;28;20029;-72
2023/05/22 04:44:58;;;;;;;168.68;68.18;;;;;;;18.86;44.28;101426.69;5030887;28;20264;-71
2023/05/22 04:47:24;;;;;;;177.18;70.43;;;;;;;18.88;44.44;101426.66;5043524;28;20501;-71
2023/05/22 04:49:50;;;;;;;168.18;67.28;;;;;;;18.88;44.09;101427.53;5052139;28;20398;-72
2023/05/22 04:52:15;;;;;;;168.77;66.10;;;;;;;18.89;43.88;101423.09;5038095;28;20493;-72
2023/05/22 04:54:43;;;;;;;170.52;66.65;;;;;;;18.90;43.84;101424.84;5049718;28;20020;-72
2023/05/22 04:57:08;;;;;;;163.20;71.43;;;;;;;18.91;43.99;101421.28;5035581;28;20485;-72
2023/05/22 04:59:36;;;;;;;162.70;71.30;;;;;;;18.91;44.49;101419.47;5051982;28;20029;-71
2023/05/22 05:02:03;;;;;;;174.23;72.78;;;;;;;18.92;44.57;101423.84;5040279;28;20116;-71
2023/05/22 05:04:28;;;;;;;171.13;74.22;;;;;;;18.92;44.41;101420.31;5050384;28;20032;-71
2023/05/22 05:06:56;;;;;;;167.80;68.97;;;;;;;18.94;43.69;101415.84;5052591;28;20096;-72
2023/05/22 05:09:21;;;;;;;182.80;72.78;;;;;;;18.94;44.10;101420.25;5048809;28;20103;-72
2023/05/22 05:11:48;;;;;;;169.57;69.78;;;;;;;18.94;44.18;101420.25;5052409;28;20442;-70
2023/05/22 05:14:13;;;;;;;186.80;76.40;;;;;;;18.94;44.11;101421.13;5052324;28;20045;-70
2023/05/22 05:16:38;;;;;;;177.10;67.18;;;;;;;18.95;43.82;101422.00;5045919;28;20070;-70
2023/05/22 05:19:04;;;;;;;166.20;65.78;;;;;;;18.94;43.88;101415.84;5051417;28;20100;-70
2023/05/22 05:21:30;;;;;;;166.52;66.55;;;;;;;18.95;44.24;101422.00;5051762;28;20024;-71
2023/05/22 05:23:55;;;;;;;164.98;64.70;;;;;;;18.95;44.32;101422.88;5051987;28;20065;-71
2023/05/22 05:26:22;;;;;;;162.10;64.28;;;;;;;18.96;44.36;101418.44;5045530;28;20079;-71
2023/05/22 05:28:48;;;;;;;166.40;65.05;;;;;;;18.96;44.36;101421.06;5051301;28;20020;-71
2023/05/22 05:31:13;;;;;;;164.45;64.68;;;;;;;18.97;43.85;101415.72;5040402;28;20021;-70
2023/05/22 05:33:39;;;;;;;166.27;63.80;;;;;;;18.99;43.70;101419.19;5048198;28;20103;-71
2023/05/22 05:36:04;;;;;;;166.48;63.60;;;;;;;19.02;44.24;101420.81;5052383;28;20443;-72
2023/05/22 05:38:30;;;;;;;162.50;63.70;;;;;;;19.03;43.82;101412.84;5051721;28;20033;-71
2023/05/22 05:40:55;;;;;;;167.35;64.97;;;;;;;19.07;43.28;101413.56;5050785;28;20040;-71
2023/05/22 05:43:22;;;;;;;167.82;64.80;;;;;;;19.09;43.52;101412.56;5052396;28;20047;-71
2023/05/22 05:45:47;;;;;;;169.35;64.60;;;;;;;19.13;43.51;101410.66;5051775;28;20549;-71
2023/05/22 05:48:12;;;;;;;164.93;64.55;;;;;;;19.16;43.48;101410.53;5052375;28;20111;-71
2023/05/22 05:50:38;;;;;;;172.48;64.55;;;;;;;19.19;43.65;101405.09;5050951;28;20025;-71
2023/05/22 05:53:03;;;;;;;163.07;64.25;;;;;;;19.21;43.22;101402.38;5041524;28;20116;-71
2023/05/22 05:55:30;;;;;;;164.20;63.05;;;;;;;19.24;43.36;101412.88;5048278;28;20474;-71
2023/05/22 05:57:55;;;;;;;168.52;65.53;;;;;;;19.25;42.99;101410.16;5051166;28;20029;-71
2023/05/22 06:00:21;;;;;;;169.73;63.47;;;;;;;19.25;42.99;101398.69;5046736;28;20094;-71
2023/05/22 06:02:47;;;;;;;181.50;66.28;;;;;;;19.24;43.58;101404.94;5028332;28;20041;-71
2023/05/22 06:05:14;;;;;;;164.93;64.53;;;;;;;19.22;43.47;101409.41;5050879;28;20130;-71
2023/05/22 06:07:39;;;;;;;171.02;65.22;;;;;;;19.18;43.35;101398.13;5048094;28;20383;-71
2023/05/22 06:10:09;;;;;;;167.57;65.13;;;;;;;19.17;43.22;101400.78;5046985;28;20040;-71
2023/05/22 06:12:36;;;;;;;162.30;63.70;;;;;;;19.14;43.81;101403.56;5030845;28;20535;-71
2023/05/22 06:15:04;;;;;;;174.90;66.30;;;;;;;19.13;43.46;101404.50;5049465;28;20025;-71
2023/05/22 06:17:30;;;;;;;172.93;64.45;;;;;;;19.12;43.74;101403.66;5038306;28;20395;-71
2023/05/22 06:19:55;;;;;;;171.88;64.95;;;;;;;19.10;43.50;101400.19;5032208;28;20051;-71
2023/05/22 06:22:24;;;;;;;168.75;64.32;;;;;;;19.09;43.64;101398.47;5045899;28;20025;-71
2023/05/22 06:24:50;;;;;;;164.98;65.15;;;;;;;19.09;43.79;101399.34;5032804;28;20459;-71
2023/05/22 06:27:16;;;;;;;170.30;64.68;;;;;;;19.10;43.27;101400.19;5049432;28;20096;-71
2023/05/22 06:29:41;;;;;;;174.93;65.85;;;;;;;19.13;43.50;101399.19;5045557;28;20048;-71
2023/05/22 06:32:06;;;;;;;182.38;66.63;;;;;;;19.14;43.60;101400.94;5046701;28;20028;-71
2023/05/22 06:34:32;;;;;;;180.32;66.32;;;;;;;19.16;43.65;101393.81;5046221;28;20021;-70
2023/05/22 06:36:57;;;;;;;187.70;67.72;;;;;;;19.19;43.86;101398.97;5042239;28;20439;-70
2023/05/22 06:39:22;;;;;;;180.82;66.53;;;;;;;19.22;43.23;101404.13;5047379;28;20382;-71
2023/05/22 06:41:51;;;;;;;170.40;64.68;;;;;;;19.27;43.30;101407.44;5047532;28;20075;-71
2023/05/22 06:44:19;;;;;;;185.23;67.18;;;;;;;19.34;43.01;101406.25;5049093;28;20032;-72
2023/05/22 06:46:44;;;;;;;162.05;62.63;;;;;;;19.42;43.35;101404.16;5050681;28;20097;-71
2023/05/22 06:49:10;;;;;;;169.75;64.25;;;;;;;19.53;42.94;101413.44;5049081;28;20030;-71
2023/05/22 06:51:35;;;;;;;168.48;63.92;;;;;;;19.66;42.64;101414.66;5044759;28;20033;-71
2023/05/22 06:54:02;;;;;;;159.55;62.85;;;;;;;19.81;42.71;101413.16;5050054;28;20060;-71
2023/05/22 06:56:27;;;;;;;173.95;64.38;;;;;;;19.98;41.72;101415.06;5030542;28;20063;-71
2023/05/22 06:58:53;;;;;;;167.15;64.05;;;;;;;20.14;41.42;101419.66;5050646;28;20072;-72
2023/05/22 07:01:18;;;;;;;166.02;63.63;;;;;;;20.27;41.27;101415.53;5041750;28;20033;-72
2023/05/22 07:03:43;;;;;;;168.75;65.50;;;;;;;20.39;41.08;101417.63;5046473;28;20036;-71
2023/05/22 07:06:09;;;;;;;197.20;68.75;;;;;;;20.50;40.68;101416.28;5026823;28;20387;-71
2023/05/22 07:08:34;;;;;;;169.10;63.85;;;;;;;20.59;40.45;101414.03;5045981;28;20107;-71
2023/05/22 07:11:00;;;;;;;190.10;67.93;;;;;;;20.68;40.26;101420.75;5049600;28;20032;-71
2023/05/22 07:13:27;;;;;;;170.55;65.57;;;;;;;20.76;40.40;101407.09;5020241;28;20033;-72
2023/05/22 07:15:53;;;;;;;163.90;64.22;;;;;;;20.84;40.03;101409.41;5050205;28;20075;-71
2023/05/22 07:18:18;;;;;;;169.93;66.00;;;;;;;20.91;39.84;101405.50;5050532;28;20563;-71
2023/05/22 07:20:44;;;;;;;170.80;66.53;;;;;;;20.96;39.87;101411.47;5037662;28;20478;-71
2023/05/22 07:23:10;;;;;;;168.77;64.78;;;;;;;21.01;39.27;101401.47;5048221;28;20021;-71
2023/05/22 07:25:35;;;;;;;160.15;63.60;;;;;;;21.05;39.47;101407.47;5049067;28;20037;-71
2023/05/22 07:28:02;;;;;;;227.88;75.32;;;;;;;21.07;39.50;101401.16;5064194;22;20715;-69
2023/05/22 07:30:28;;;;;;;169.43;67.45;;;;;;;21.09;39.27;101398.44;5045754;28;20280;-72
2023/05/22 07:32:53;;;;;;;173.30;67.93;;;;;;;21.14;39.56;101400.88;5048231;28;20112;-70
2023/05/22 07:35:19;;;;;;;178.00;70.45;;;;;;;21.18;39.34;101394.47;5064969;28;20066;-70
2023/05/22 07:37:44;;;;;;;173.20;68.25;;;;;;;21.21;39.60;101389.84;5058573;28;20020;-70
2023/05/22 07:40:10;;;;;;;167.05;67.20;;;;;;;21.27;39.20;101396.69;5034507;28;20049;-70
2023/05/22 07:42:36;;;;;;;170.88;67.82;;;;;;;21.30;39.14;101385.00;5047943;28;20061;-70
2023/05/22 07:45:02;;;;;;;171.48;67.38;;;;;;;21.31;38.67;101392.03;5046875;28;20032;-71
2023/05/22 07:47:27;;;;;;;191.18;71.35;;;;;;;21.33;39.17;101385.72;5031677;28;20355;-71
2023/05/22 07:49:53;;;;;;;183.65;69.85;;;;;;;21.37;38.95;101383.78;5046575;28;20037;-70
2023/05/22 07:52:18;;;;;;;177.70;68.15;;;;;;;21.39;39.11;101382.78;5045032;28;20032;-70
2023/05/22 07:54:44;;;;;;;170.02;66.93;;;;;;;21.43;39.28;101381.69;5048781;28;20028;-71
2023/05/22 07:57:11;;;;;;;184.27;70.47;;;;;;;21.45;39.07;101384.25;5043868;28;20071;-70
2023/05/22 07:59:36;;;;;;;172.70;68.88;;;;;;;21.45;38.75;101374.47;5048348;28;20026;-72
2023/05/22 08:02:01;;;;;;;172.05;68.88;;;;;;;21.45;38.98;101374.47;5028716;28;20559;-71
2023/05/22 08:04:28;;;;;;;172.55;68.32;;;;;;;21.44;38.88;101370.09;5057363;28;20095;-69
2023/05/22 08:06:54;;;;;;;170.98;67.57;;;;;;;21.43;39.06;101380.78;5044917;28;20374;-71
2023/05/22 08:09:20;;;;;;;172.90;68.80;;;;;;;21.43;39.50;101392.31;5048943;28;20093;-72
2023/05/22 08:11:45;;;;;;;167.77;67.18;;;;;;;21.45;39.12;101379.78;5049301;28;20052;-70
2023/05/22 08:14:11;;;;;;;209.85;74.38;;;;;;;21.49;38.93;101379.63;5043554;28;20084;-70
2023/05/22 08:16:36;;;;;;;174.73;68.05;;;;;;;21.49;38.89;101380.50;5046794;28;20120;-71
2023/05/22 08:19:01;;;;;;;171.68;69.63;;;;;;;21.48;38.66;101383.25;5048366;28;20060;-71
2023/05/22 08:21:27;;;;;;;177.52;71.22;;;;;;;21.48;38.93;101381.44;5050407;28;20028;-71
2023/05/22 08:23:52;;;;;;;174.00;69.15;;;;;;;21.50;39.04;101381.34;5048811;28;20040;-71
2023/05/22 08:26:17;;;;;;;190.75;72.18;;;;;;;21.50;38.82;101371.59;5045306;28;20025;-71
2023/05/22 08:28:43;;;;;;;173.43;70.00;;;;;;;21.52;38.91;101372.34;5075477;28;20259;-71
2023/05/22 08:31:10;;;;;;;171.75;68.55;;;;;;;21.55;39.19;101379.34;5045086;28;20174;-71
2023/05/22 08:33:35;;;;;;;169.00;67.93;;;;;;;21.53;39.01;101381.22;5049409;28;20017;-71
2023/05/22 08:36:00;;;;;;;168.90;68.90;;;;;;;21.51;39.04;101377.75;5046162;28;20359;-71
2023/05/22 08:38:26;;;;;;;166.00;67.82;;;;;;;21.49;38.96;101374.31;5041728;28;20032;-70
2023/05/22 08:40:53;;;;;;;171.80;70.18;;;;;;;21.48;39.45;101372.59;5052867;28;20029;-70
2023/05/22 08:43:19;;;;;;;171.98;68.43;;;;;;;21.45;39.33;101373.63;5031317;28;20056;-71
2023/05/22 08:45:46;;;;;;;166.38;69.43;;;;;;;21.41;39.34;101372.91;5047549;28;20021;-72
2023/05/22 08:48:13;;;;;;;171.88;68.78;;;;;;;21.37;39.48;101375.81;5042050;28;20035;-72
2023/05/22 08:50:42;;;;;;;173.40;69.70;;;;;;;21.31;40.05;101365.47;5051756;28;20492;-70
2023/05/22 08:53:11;;;;;;;170.90;68.53;;;;;;;21.34;39.81;101365.34;5044282;28;20135;-70
2023/05/22 08:55:37;;;;;;;187.38;71.85;;;;;;;21.37;39.44;101360.72;5036383;28;20020;-71
2023/05/22 08:58:03;;;;;;;164.90;67.45;;;;;;;21.39;39.82;101365.94;5052793;28;20516;-71
2023/05/22 09:00:29;;;;;;;171.38;68.13;;;;;;;21.39;39.49;101358.84;5050334;28;20122;-71
2023/05/22 09:02:54;;;;;;;171.23;69.47;;;;;;;21.42;39.66;101357.84;5055533;28;20059;-71
2023/05/22 09:05:20;;;;;;;173.02;68.85;;;;;;;21.41;39.17;101356.97;5044154;28;20541;-70
2023/05/22 09:07:47;;;;;;;172.45;68.78;;;;;;;21.42;39.05;101347.22;5052143;28;20021;-70
2023/05/22 09:10:13;;;;;;;167.80;66.97;;;;;;;21.41;39.78;101351.66;5052648;28;20033;-70
2023/05/22 09:13:06;;;;;;;172.10;68.43;;;;;;;21.38;39.50;101350.97;5043697;28;20028;-70
2023/05/22 09:15:32;;;;;;;170.18;66.75;;;;;;;21.34;39.26;101349.41;5053977;28;20029;-72
2023/05/22 09:17:58;;;;;;;191.32;70.90;;;;;;;21.33;39.60;101343.22;5050748;28;20538;-71
2023/05/22 09:20:24;;;;;;;178.07;68.07;;;;;;;21.31;39.82;101339.78;5048587;28;20090;-70
2023/05/22 09:22:49;;;;;;;181.38;69.95;;;;;;;21.31;39.71;101345.09;5026941;28;20517;-70
2023/05/22 09:25:19;;;;;;;183.88;68.93;;;;;;;21.32;39.53;101340.63;5047459;28;20109;-71
2023/05/22 09:27:45;;;;;;;172.63;67.40;;;;;;;21.28;39.92;101335.50;5044062;28;20039;-70
2023/05/22 09:30:11;;;;;;;175.27;68.38;;;;;;;21.27;39.87;101336.41;5048451;28;20029;-73
2023/05/22 09:32:37;;;;;;;174.65;68.00;;;;;;;21.27;39.68;101332.91;5078930;28;20025;-70
2023/05/22 09:35:03;;;;;;;179.52;69.10;;;;;;;21.30;39.73;101331.88;5043167;28;20025;-70
2023/05/22 09:37:33;;;;;;;172.48;67.68;;;;;;;21.31;39.98;101329.16;5047917;28;20048;-71
2023/05/22 09:40:04;;;;;;;179.00;69.70;;;;;;;21.32;39.96;101336.16;5050037;28;20048;-70
2023/05/22 09:42:31;;;;;;;174.80;67.90;;;;;;;21.31;39.94;101328.28;5048107;28;20036;-71
2023/05/22 09:45:02;;;;;;;199.82;72.50;;;;;;;21.27;39.79;101322.28;5048632;28;20017;-71
2023/05/22 09:47:27;;;;;;;172.50;67.45;;;;;;;21.25;40.09;101322.34;5053482;28;20044;-70
2023/05/22 09:49:56;;;;;;;174.20;67.18;;;;;;;21.26;40.37;101325.88;5046642;28;20029;-71
2023/05/22 09:52:22;;;;;;;172.25;67.22;;;;;;;21.22;40.32;101319.84;5049836;28;20017;-71
2023/05/22 09:54:54;;;;;;;168.25;67.05;;;;;;;21.17;40.28;101318.38;5032463;28;20022;-71
2023/05/22 09:57:20;;;;;;;167.77;66.65;;;;;;;21.09;40.31;101316.97;5031366;28;20294;-71
2023/05/22 09:59:58;;;;;;;176.10;68.78;;;;;;;21.06;40.37;101309.13;5035981;28;20040;-71
2023/05/22 10:02:25;;;;;;;167.18;67.22;;;;;;;21.02;40.71;101315.53;5050084;28;20044;-70
2023/05/22 10:04:51;;;;;;;171.18;66.82;;;;;;;21.01;40.58;101310.31;5058738;28;20059;-71
2023/05/22 10:07:36;;;;;;;175.85;68.60;;;;;;;20.99;40.31;101301.56;5047927;28;20028;-71
2023/05/22 10:10:10;;;;;;;193.52;72.43;;;;;;;20.96;40.42;101305.25;5046194;28;20103;-70
2023/05/22 10:12:46;;;;;;;174.32;67.03;;;;;;;20.93;41.09;101308.06;5050971;28;20505;-71
2023/05/22 10:15:12;;;;;;;182.23;68.85;;;;;;;20.91;40.50;101304.59;5051383;28;20512;-71
2023/05/22 10:17:38;;;;;;;173.98;66.60;;;;;;;20.87;40.77;101298.59;5054575;28;20025;-71
2023/05/22 10:20:06;;;;;;;175.65;67.82;;;;;;;20.85;40.92;101304.94;5049342;28;20047;-70
2023/05/22 10:22:34;;;;;;;165.35;64.65;;;;;;;20.81;41.10;101292.75;5037519;28;20208;-70
2023/05/22 10:25:00;;;;;;;177.55;66.40;;;;;;;20.80;41.25;101291.88;5048259;28;20083;-71
2023/05/22 10:27:25;;;;;;;174.63;66.47;;;;;;;20.77;41.00;101292.88;5051399;28;20024;-71
2023/05/22 10:30:20;;;;;;;177.95;67.22;;;;;;;20.76;41.17;101285.88;5054732;28;20028;-70
2023/05/22 10:33:23;;;;;;;164.05;64.40;;;;;;;20.74;41.11;101284.22;5021759;28;20082;-70
2023/05/22 10:36:01;;;;;;;170.85;66.20;;;;;;;20.73;41.48;101282.50;5053509;28;20027;-70
2023/05/22 10:38:49;;;;;;;182.07;68.05;;;;;;;20.74;41.32;101279.75;5028648;28;20498;-70
2023/05/22 10:41:15;;;;;;;173.80;68.35;;;;;;;20.76;41.06;101277.91;5072616;28;20033;-70
2023/05/22 10:43:41;;;;;;;174.38;65.97;;;;;;;20.78;41.37;101277.81;5055260;28;20032;-70
2023/05/22 10:46:08;;;;;;;179.05;66.85;;;;;;;20.80;41.21;101281.25;5034032;28;20083;-70
2023/05/22 10:48:38;;;;;;;178.15;67.53;;;;;;;20.82;41.07;101267.91;5038731;28;20071;-70
2023/05/22 10:51:03;;;;;;;173.95;66.45;;;;;;;20.82;41.06;101276.75;5058517;28;20021;-70
2023/05/22 10:53:34;;;;;;;168.85;65.22;;;;;;;20.82;41.12;101268.78;5057368;28;20124;-70
2023/05/22 10:56:09;;;;;;;186.65;69.72;;;;;;;20.81;41.13;101276.81;5037350;28;20049;-70
2023/05/22 10:58:37;;;;;;;168.43;65.22;;;;;;;20.79;41.03;101257.44;5048165;28;20021;-70
2023/05/22 11:01:19;;;;;;;167.98;66.53;;;;;;;20.79;41.27;101257.44;5048586;28;20068;-71
2023/05/22 11:04:01;;;;;;;167.88;64.97;;;;;;;20.77;40.96;101250.41;5047621;28;20025;-70